Deer River, New York
Current Conditions -  °F | °C
As of 6:08 AM on Wednesday 22 Oct 2014 (Local Time) from KGTB Reporting Station
Overcast Overcast  
Wind Chill: 37°   Ceiling: 1000
Heat Index: 43°   Visibility: 10mi
Dew Point: 39°   Wind: 12mph
Humidity: 87%   Direction: 40°NE
Pressure: 30.13"   Gusts: NA
Location:  43.93°N, 75.59°W
Report Text: KGTB 221008Z AUTO 04010KT 10SM OVC010 06/04 A3013 RMK AO2
Loading
Personal Weather Stations






























Interactive Weather Map
Tropical Storm Tracking
New forecast layout! Learn more

10-Day Weather Forecast

Advertisements
Track Severe Weather on mobile